Time;durP1;ratioP1;P1;durP2;ratioP2;P2;SDS_P1;SDS_P2;PMS_P1;PMS_P2;Temp;Humidity;BMP_temperature;BMP_pressure;BME280_temperature;BME280_humidity;BME280_pressure;Samples;Min_cycle;Max_cycle;Signal;HPM_P1;HPM_P2
2023/01/31 00:00:30;;;;;;;15.43;4.00;;;4.30;93.80;;;;;;4986069;28;20459;-80
2023/01/31 00:02:57;;;;;;;17.20;3.87;;;4.30;97.10;;;;;;4989163;28;20498;-82
2023/01/31 00:05:23;;;;;;;12.23;4.20;;;4.20;99.90;;;;;;4976265;28;20535;-81
2023/01/31 00:07:50;;;;;;;12.60;3.50;;;4.10;99.90;;;;;;4989981;28;20531;-80
2023/01/31 00:10:19;;;;;;;17.20;4.70;;;4.00;99.90;;;;;;4985078;28;20503;-80
2023/01/31 00:12:45;;;;;;;18.00;4.00;;;4.10;99.90;;;;;;4985755;28;20546;-81
2023/01/31 00:15:15;;;;;;;15.47;4.53;;;4.00;99.90;;;;;;4987009;28;20579;-80
2023/01/31 00:17:44;;;;;;;18.37;3.57;;;3.90;99.90;;;;;;4987239;28;21071;-80
2023/01/31 00:20:12;;;;;;;15.13;3.27;;;3.90;99.90;;;;;;4987143;28;20460;-81
2023/01/31 00:22:40;;;;;;;14.50;3.37;;;3.90;99.90;;;;;;4977179;28;20512;-81
2023/01/31 00:25:08;;;;;;;10.57;4.67;;;3.80;99.90;;;;;;4987387;28;20512;-81
2023/01/31 00:27:36;;;;;;;12.63;3.30;;;3.80;99.90;;;;;;4990268;28;20519;-81
2023/01/31 00:30:04;;;;;;;13.23;4.00;;;3.80;99.90;;;;;;4986636;28;20540;-84
2023/01/31 00:32:31;;;;;;;18.13;4.33;;;3.80;99.90;;;;;;4989391;28;20519;-82
2023/01/31 00:34:57;;;;;;;9.83;3.93;;;3.90;99.90;;;;;;4985031;28;20515;-82
2023/01/31 00:37:24;;;;;;;12.33;3.07;;;4.00;99.90;;;;;;4979811;28;20525;-83
2023/01/31 00:39:51;;;;;;;19.43;3.80;;;4.10;99.90;;;;;;4988940;28;20558;-80
2023/01/31 00:42:18;;;;;;;11.97;3.37;;;4.20;99.90;;;;;;4985419;28;20539;-80
2023/01/31 00:44:46;;;;;;;14.57;4.10;;;4.30;99.90;;;;;;4993428;28;20463;-81
2023/01/31 00:47:40;;;;;;;11.80;3.70;;;4.40;99.90;;;;;;4987138;28;20464;-82
2023/01/31 00:50:40;;;;;;;14.93;3.97;;;4.40;99.90;;;;;;4989145;28;20502;-81
2023/01/31 00:53:22;;;;;;;11.20;3.50;;;4.50;99.90;;;;;;4995628;28;20477;-81
2023/01/31 00:55:50;;;;;;;11.53;3.30;;;4.60;99.90;;;;;;5000946;28;20460;-82
2023/01/31 00:58:17;;;;;;;14.30;3.70;;;4.60;99.90;;;;;;4987988;28;20491;-82
2023/01/31 01:00:45;;;;;;;15.43;4.40;;;4.70;99.90;;;;;;4987192;28;20461;-81
2023/01/31 01:03:12;;;;;;;12.67;3.50;;;4.70;99.90;;;;;;4982572;28;20484;-80
2023/01/31 01:05:39;;;;;;;12.20;3.53;;;4.70;99.90;;;;;;4993672;28;20479;-80
2023/01/31 01:08:06;;;;;;;14.53;3.90;;;4.80;99.90;;;;;;4987906;28;20477;-81
2023/01/31 01:10:33;;;;;;;11.40;3.50;;;4.80;99.90;;;;;;4974544;28;20554;-81
2023/01/31 01:13:00;;;;;;;16.20;4.20;;;4.90;98.00;;;;;;4996055;28;20520;-80
2023/01/31 01:15:27;;;;;;;12.33;3.70;;;4.90;99.90;;;;;;4992983;28;21351;-81
2023/01/31 01:17:55;;;;;;;15.67;3.27;;;4.90;94.00;;;;;;4993636;28;20466;-81
2023/01/31 01:20:22;;;;;;;15.17;4.40;;;4.90;92.50;;;;;;4989096;28;20448;-80
2023/01/31 01:22:52;;;;;;;8.73;3.57;;;5.00;72.10;;;;;;4983807;28;20478;-80
2023/01/31 01:25:19;;;;;;;20.43;4.03;;;5.00;80.70;;;;;;4995972;28;20449;-83
2023/01/31 01:27:45;;;;;;;15.63;3.73;;;4.90;68.20;;;;;;4992115;28;20512;-80
2023/01/31 01:30:12;;;;;;;14.07;3.53;;;4.90;83.30;;;;;;4967705;28;20516;-80
2023/01/31 01:32:39;;;;;;;18.73;4.30;;;4.90;70.20;;;;;;4987822;28;20487;-81
2023/01/31 01:35:08;;;;;;;10.23;3.17;;;4.90;62.30;;;;;;4991040;28;20590;-81
2023/01/31 01:37:35;;;;;;;21.17;5.73;;;4.90;55.80;;;;;;4985567;28;20481;-80
2023/01/31 01:40:03;;;;;;;14.53;4.10;;;4.80;49.00;;;;;;4986972;28;20453;-81
2023/01/31 01:42:34;;;;;;;14.30;4.60;;;4.70;57.30;;;;;;4988458;28;21032;-81
2023/01/31 01:45:03;;;;;;;17.43;4.57;;;4.50;89.70;;;;;;5004992;28;20560;-81
2023/01/31 01:47:36;;;;;;;22.93;3.80;;;4.40;99.90;;;;;;5000318;28;20543;-81
2023/01/31 01:50:12;;;;;;;30.20;5.90;;;4.30;99.90;;;;;;4996965;28;20484;-80
2023/01/31 01:52:50;;;;;;;13.77;4.40;;;4.30;99.90;;;;;;4964817;28;20462;-82
2023/01/31 01:55:24;;;;;;;11.40;6.43;;;4.40;99.90;;;;;;4986201;28;20485;-80
2023/01/31 01:58:00;;;;;;;20.30;5.00;;;4.40;99.90;;;;;;4987396;28;20836;-81
2023/01/31 02:00:47;;;;;;;18.83;4.80;;;4.40;99.90;;;;;;4966146;28;20491;-81
2023/01/31 02:03:16;;;;;;;15.30;4.20;;;4.50;99.90;;;;;;4988462;28;20499;-84
2023/01/31 02:05:47;;;;;;;17.10;4.60;;;4.50;99.90;;;;;;4990553;28;20464;-81
2023/01/31 02:08:17;;;;;;;17.83;4.80;;;4.50;99.90;;;;;;4982798;28;20464;-80
2023/01/31 02:10:51;;;;;;;14.10;3.13;;;4.50;99.90;;;;;;5001990;28;20451;-80
2023/01/31 02:13:19;;;;;;;12.27;5.47;;;4.50;99.90;;;;;;4993755;28;20493;-82
2023/01/31 02:15:46;;;;;;;13.10;3.50;;;4.60;99.90;;;;;;4997686;28;20500;-80
2023/01/31 02:18:14;;;;;;;19.53;4.30;;;4.60;99.90;;;;;;4994412;28;20970;-80
2023/01/31 02:21:25;;;;;;;15.00;3.27;;;4.60;93.80;;;;;;4992219;28;20995;-81
2023/01/31 02:24:16;;;;;;;13.87;4.30;;;4.60;88.70;;;;;;4981892;28;20505;-81
2023/01/31 02:27:34;;;;;;;13.23;4.60;;;4.50;99.90;;;;;;4980708;28;20463;-81
2023/01/31 02:30:24;;;;;;;13.57;3.83;;;4.60;99.50;;;;;;4944260;29;21184;-81
2023/01/31 02:33:02;;;;;;;16.60;4.03;;;4.60;72.10;;;;;;4946912;29;20484;-80
2023/01/31 02:35:42;;;;;;;15.40;3.17;;;4.50;63.60;;;;;;4967613;28;20582;-79
2023/01/31 02:38:19;;;;;;;8.13;3.20;;;4.60;49.50;;;;;;4982264;28;20463;-81
2023/01/31 02:40:52;;;;;;;10.23;3.60;;;4.60;40.80;;;;;;4988969;28;20464;-79
2023/01/31 02:43:25;;;;;;;11.90;3.30;;;4.60;42.40;;;;;;4988505;28;20498;-80
2023/01/31 02:46:00;;;;;;;12.17;3.60;;;4.60;45.40;;;;;;4995678;28;20454;-80
2023/01/31 02:48:41;;;;;;;17.83;3.60;;;4.60;45.90;;;;;;4982316;28;20453;-80
2023/01/31 02:51:13;;;;;;;21.73;4.20;;;4.60;41.80;;;;;;4981385;28;20475;-81
2023/01/31 02:53:45;;;;;;;9.60;3.77;;;4.60;37.90;;;;;;4987739;28;20487;-80
2023/01/31 02:56:18;;;;;;;10.77;3.97;;;4.60;38.60;;;;;;4997185;28;20475;-80
2023/01/31 02:58:53;;;;;;;13.57;3.53;;;4.50;38.90;;;;;;4992196;28;20537;-81
2023/01/31 03:01:26;;;;;;;18.03;3.77;;;4.50;44.70;;;;;;4989506;28;20480;-80
2023/01/31 03:03:58;;;;;;;14.20;4.53;;;4.50;43.20;;;;;;4984533;28;20495;-80
2023/01/31 03:07:00;;;;;;;13.50;3.53;;;4.60;61.50;;;;;;4988582;28;20472;-81
2023/01/31 03:09:46;;;;;;;15.00;4.00;;;4.70;41.30;;;;;;4982933;28;20470;-81
2023/01/31 03:12:32;;;;;;;24.03;6.37;;;4.70;29.80;;;;;;4997891;28;21060;-80
2023/01/31 03:15:22;;;;;;;16.87;4.40;;;4.70;30.00;;;;;;5005587;28;20489;-80
2023/01/31 03:17:58;;;;;;;7.23;2.20;;;4.70;30.80;;;;;;4996516;28;20487;-81
2023/01/31 03:20:34;;;;;;;12.87;4.27;;;4.70;27.90;;;;;;4993480;28;20839;-83
2023/01/31 03:23:05;;;;;;;12.80;4.00;;;4.80;25.50;;;;;;5006774;28;20564;-81
2023/01/31 03:25:37;;;;;;;20.57;3.50;;;4.90;23.90;;;;;;4994980;28;20452;-83
2023/01/31 03:28:11;;;;;;;14.27;4.63;;;4.90;14.70;;;;;;4993462;28;20520;-81
2023/01/31 03:30:45;;;;;;;12.67;4.10;;;4.90;13.60;;;;;;4994996;28;20464;-82
2023/01/31 03:33:17;;;;;;;13.03;4.73;;;4.90;9.60;;;;;;4990335;28;21062;-80
2023/01/31 03:35:51;;;;;;;12.33;4.00;;;4.90;16.00;;;;;;4997419;28;20936;-81
2023/01/31 03:38:21;;;;;;;11.57;3.90;;;4.80;14.00;;;;;;4988107;28;20468;-83
2023/01/31 03:40:53;;;;;;;19.67;4.63;;;4.80;14.30;;;;;;4994399;28;20550;-80
2023/01/31 03:43:25;;;;;;;13.03;4.70;;;4.80;19.80;;;;;;4987487;28;20625;-81
2023/01/31 03:45:57;;;;;;;10.97;4.30;;;4.80;15.40;;;;;;4993126;28;20550;-79
2023/01/31 03:48:28;;;;;;;13.27;3.57;;;4.80;17.20;;;;;;4984477;28;20472;-79
2023/01/31 03:50:59;;;;;;;25.27;5.00;;;4.70;25.30;;;;;;4988949;28;20460;-78
2023/01/31 03:53:31;;;;;;;15.03;4.90;;;4.80;44.40;;;;;;4981427;28;21036;-78
2023/01/31 03:56:03;;;;;;;15.93;3.47;;;4.70;48.80;;;;;;4986404;28;20555;-78
2023/01/31 03:58:32;;;;;;;13.77;3.73;;;4.80;34.50;;;;;;4975648;28;20464;-80
2023/01/31 04:01:04;;;;;;;17.63;4.63;;;4.80;26.80;;;;;;4984135;28;20972;-81
2023/01/31 04:03:37;;;;;;;12.37;3.60;;;4.70;19.70;;;;;;4981717;28;20526;-79
2023/01/31 04:06:06;;;;;;;17.30;4.53;;;4.70;27.10;;;;;;4971983;28;20489;-80
2023/01/31 04:08:34;;;;;;;23.17;4.63;;;4.70;32.60;;;;;;4963493;28;20472;-81
2023/01/31 04:11:04;;;;;;;9.40;3.47;;;4.70;23.20;;;;;;4980003;28;20453;-80
2023/01/31 04:13:31;;;;;;;10.03;3.40;;;4.50;18.60;;;;;;4976622;28;20503;-80
2023/01/31 04:15:59;;;;;;;12.87;3.97;;;4.40;42.30;;;;;;4989493;28;20559;-80
2023/01/31 04:18:26;;;;;;;10.30;3.90;;;4.30;52.60;;;;;;4987246;28;20480;-79
2023/01/31 04:20:52;;;;;;;8.70;3.00;;;4.30;70.20;;;;;;4988983;28;20456;-82
2023/01/31 04:23:20;;;;;;;11.90;3.03;;;4.20;74.60;;;;;;4975980;28;20515;-79
2023/01/31 04:25:47;;;;;;;20.13;4.17;;;4.10;95.80;;;;;;5002247;23;20530;-80
2023/01/31 04:28:14;;;;;;;17.23;4.03;;;4.10;99.90;;;;;;4969809;28;20474;-81
2023/01/31 04:30:41;;;;;;;15.80;4.13;;;4.20;99.90;;;;;;4966465;28;20826;-81
2023/01/31 04:33:08;;;;;;;15.60;4.23;;;4.30;99.90;;;;;;4971767;28;20457;-82
2023/01/31 04:35:34;;;;;;;8.70;3.60;;;4.40;99.90;;;;;;4967710;28;20590;-81
2023/01/31 04:38:01;;;;;;;19.20;4.97;;;4.50;99.90;;;;;;4977660;28;20471;-82
2023/01/31 04:40:29;;;;;;;13.03;4.13;;;4.60;95.50;;;;;;4978035;28;20578;-79
2023/01/31 04:42:56;;;;;;;19.10;4.60;;;4.50;91.50;;;;;;4978737;28;20471;-82
2023/01/31 04:45:23;;;;;;;13.77;5.37;;;4.60;81.70;;;;;;4976696;28;20487;-82
2023/01/31 04:47:50;;;;;;;14.70;4.50;;;4.70;93.00;;;;;;4976456;28;20962;-81
2023/01/31 04:50:17;;;;;;;20.23;5.10;;;4.70;79.40;;;;;;4974952;28;20489;-80
2023/01/31 04:52:46;;;;;;;16.83;4.30;;;4.70;93.30;;;;;;4965921;28;20485;-81
2023/01/31 04:55:12;;;;;;;16.53;5.37;;;4.70;91.40;;;;;;4960423;28;20491;-80
2023/01/31 04:57:41;;;;;;;12.70;4.73;;;4.80;98.10;;;;;;4973548;28;20457;-80
2023/01/31 05:00:09;;;;;;;11.70;4.23;;;4.80;94.00;;;;;;4964742;28;20485;-81
2023/01/31 05:02:36;;;;;;;20.00;5.90;;;4.80;96.20;;;;;;4977202;28;20476;-80
2023/01/31 05:05:02;;;;;;;12.60;4.50;;;4.80;99.90;;;;;;4976716;28;20831;-82
2023/01/31 05:07:29;;;;;;;22.73;6.27;;;4.80;99.90;;;;;;4977721;28;20468;-80
2023/01/31 05:09:56;;;;;;;22.17;6.50;;;4.80;99.90;;;;;;4975624;28;21066;-81
2023/01/31 05:12:23;;;;;;;14.87;6.23;;;4.90;99.90;;;;;;4973219;28;20461;-81
2023/01/31 05:14:51;;;;;;;17.23;5.30;;;4.90;99.90;;;;;;4974073;28;20499;-82
2023/01/31 05:17:24;;;;;;;20.90;5.77;;;4.90;99.90;;;;;;4977413;28;20538;-80
2023/01/31 05:19:51;;;;;;;12.20;4.60;;;4.90;99.90;;;;;;4975659;28;20479;-81
2023/01/31 05:22:21;;;;;;;16.27;6.13;;;5.00;99.90;;;;;;4976718;28;20476;-80
2023/01/31 05:24:48;;;;;;;17.00;6.47;;;5.00;99.90;;;;;;4980960;28;20528;-80
2023/01/31 05:27:16;;;;;;;20.97;6.40;;;5.00;90.30;;;;;;4993439;28;20466;-81
2023/01/31 05:29:43;;;;;;;20.13;6.73;;;5.10;99.70;;;;;;4994405;28;20457;-80
2023/01/31 05:32:14;;;;;;;18.43;7.43;;;5.10;89.20;;;;;;4976777;28;20495;-80
2023/01/31 05:34:41;;;;;;;15.73;5.60;;;5.10;74.40;;;;;;4992461;28;20477;-78
2023/01/31 05:37:07;;;;;;;19.07;5.57;;;5.20;63.00;;;;;;4996093;28;20475;-83
2023/01/31 05:39:35;;;;;;;15.77;5.97;;;5.20;52.10;;;;;;4999721;28;20526;-80
2023/01/31 05:42:02;;;;;;;14.63;5.03;;;5.10;58.70;;;;;;5002586;28;20523;-80
2023/01/31 05:44:28;;;;;;;12.97;5.47;;;5.10;54.10;;;;;;5000024;28;20955;-81
2023/01/31 05:46:55;;;;;;;20.27;6.33;;;5.10;75.60;;;;;;4999180;28;21215;-81
2023/01/31 05:49:23;;;;;;;16.80;5.47;;;5.10;68.80;;;;;;4999927;28;20460;-81
2023/01/31 05:51:50;;;;;;;12.67;5.60;;;5.00;87.70;;;;;;4999238;28;20458;-81
2023/01/31 05:54:17;;;;;;;15.90;6.20;;;5.00;79.90;;;;;;4999696;28;20459;-82
2023/01/31 05:56:44;;;;;;;11.37;5.10;;;5.10;63.70;;;;;;4999587;28;20495;-81
2023/01/31 05:59:11;;;;;;;17.00;5.37;;;5.00;51.10;;;;;;4999727;28;20479;-82
2023/01/31 06:01:38;;;;;;;17.33;6.00;;;5.00;76.60;;;;;;4998819;28;20471;-83
2023/01/31 06:04:05;;;;;;;16.33;5.63;;;5.00;50.60;;;;;;4994187;28;21030;-81
2023/01/31 06:06:33;;;;;;;14.50;6.33;;;5.00;42.80;;;;;;4992654;28;20532;-82
2023/01/31 06:09:00;;;;;;;14.37;5.67;;;5.00;41.50;;;;;;4989170;28;20472;-79
2023/01/31 06:11:26;;;;;;;15.93;6.57;;;5.10;39.40;;;;;;4991493;28;20490;-82
2023/01/31 06:13:56;;;;;;;23.20;8.23;;;5.00;49.40;;;;;;4995951;28;20554;-82
2023/01/31 06:16:23;;;;;;;21.80;6.37;;;5.00;41.50;;;;;;5004990;28;20491;-82
2023/01/31 06:18:50;;;;;;;12.90;6.70;;;5.00;41.40;;;;;;4999503;28;20473;-82
2023/01/31 06:21:16;;;;;;;12.47;6.60;;;5.00;42.90;;;;;;5002207;28;20460;-79
2023/01/31 06:23:46;;;;;;;15.30;5.90;;;5.00;43.00;;;;;;5000625;28;20466;-82
2023/01/31 06:26:13;;;;;;;16.40;6.93;;;5.00;34.10;;;;;;4999288;28;20492;-83
2023/01/31 06:28:40;;;;;;;22.50;7.07;;;5.10;32.50;;;;;;4991431;28;20566;-82
2023/01/31 06:31:08;;;;;;;16.17;5.53;;;5.00;23.40;;;;;;4998728;28;20456;-82
2023/01/31 06:33:34;;;;;;;20.60;8.07;;;5.10;22.60;;;;;;4997372;28;20477;-82
2023/01/31 06:36:01;;;;;;;15.50;6.77;;;5.10;18.50;;;;;;4993508;28;20491;-82
2023/01/31 06:38:28;;;;;;;15.60;6.77;;;5.10;15.80;;;;;;4999247;28;20451;-81
2023/01/31 06:40:57;;;;;;;18.87;5.73;;;5.10;12.30;;;;;;4993007;28;20476;-82
2023/01/31 06:43:24;;;;;;;15.77;5.33;;;5.10;14.50;;;;;;4994704;28;20803;-82
2023/01/31 06:45:50;;;;;;;15.13;5.50;;;5.10;11.10;;;;;;4980951;28;20482;-83
2023/01/31 06:48:18;;;;;;;21.80;7.90;;;5.10;10.50;;;;;;4985217;28;20919;-81
2023/01/31 06:50:45;;;;;;;17.00;7.43;;;5.10;11.90;;;;;;4997217;28;20456;-80
2023/01/31 06:53:12;;;;;;;14.83;5.97;;;5.10;17.30;;;;;;4991907;28;20830;-80
2023/01/31 06:55:39;;;;;;;19.00;7.27;;;5.10;19.00;;;;;;4995548;28;20491;-81
2023/01/31 06:58:07;;;;;;;14.60;7.07;;;5.20;17.20;;;;;;4994320;28;20472;-82
2023/01/31 07:00:34;;;;;;;18.53;7.10;;;5.10;20.40;;;;;;4996049;28;20481;-80
2023/01/31 07:03:01;;;;;;;18.13;6.97;;;5.10;11.50;;;;;;4982415;28;20486;-80
2023/01/31 07:05:28;;;;;;;20.57;6.70;;;5.20;16.40;;;;;;4995993;28;20505;-79
2023/01/31 07:07:54;;;;;;;17.10;6.30;;;5.20;20.30;;;;;;4994463;28;21146;-81
2023/01/31 07:10:21;;;;;;;14.23;5.80;;;5.20;18.80;;;;;;4996996;28;20503;-79
2023/01/31 07:12:48;;;;;;;17.50;7.80;;;5.10;18.50;;;;;;4989526;28;20453;-81
2023/01/31 07:15:16;;;;;;;16.00;6.13;;;5.10;24.90;;;;;;4998311;28;20928;-82
2023/01/31 07:17:44;;;;;;;24.07;7.30;;;5.20;28.10;;;;;;4988170;28;20447;-81
2023/01/31 07:20:11;;;;;;;24.33;7.03;;;5.20;21.50;;;;;;4993963;28;20456;-79
2023/01/31 07:22:40;;;;;;;14.17;6.10;;;5.20;15.20;;;;;;4999161;28;20539;-82
2023/01/31 07:25:07;;;;;;;16.87;6.80;;;5.20;12.40;;;;;;4992683;28;20929;-79
2023/01/31 07:27:34;;;;;;;13.77;6.30;;;5.30;1.00;;;;;;4995066;28;20859;-81
2023/01/31 07:30:01;;;;;;;19.00;7.20;;;5.30;1.00;;;;;;4995808;28;20575;-80
2023/01/31 07:32:30;;;;;;;18.63;6.43;;;5.20;1.00;;;;;;4988735;28;20507;-81
2023/01/31 07:34:57;;;;;;;11.13;6.77;;;5.30;4.50;;;;;;4996418;28;20486;-79
2023/01/31 07:37:24;;;;;;;16.80;6.00;;;5.20;1.00;;;;;;4995057;28;20487;-80
2023/01/31 07:39:51;;;;;;;19.17;6.83;;;5.30;1.00;;;;;;4996342;28;20493;-82
2023/01/31 07:42:18;;;;;;;17.90;6.40;;;5.30;1.00;;;;;;4986231;28;20467;-82
2023/01/31 07:44:44;;;;;;;16.70;7.57;;;5.30;1.00;;;;;;4995860;28;20481;-82
2023/01/31 07:47:11;;;;;;;17.43;6.50;;;5.30;1.00;;;;;;4996810;28;20898;-80
2023/01/31 07:49:39;;;;;;;18.90;6.33;;;5.40;1.00;;;;;;4994993;28;20457;-82
2023/01/31 07:52:06;;;;;;;16.33;6.17;;;5.50;1.00;;;;;;5001226;28;20450;-81
2023/01/31 07:54:33;;;;;;;16.60;6.67;;;5.50;1.00;;;;;;4999227;28;20478;-81
2023/01/31 07:57:00;;;;;;;24.43;7.03;;;5.50;1.00;;;;;;4995672;28;20495;-82
2023/01/31 07:59:27;;;;;;;15.40;5.17;;;5.60;1.00;;;;;;4996097;28;20438;-81
2023/01/31 08:04:39;;;;;;;14.80;6.17;;;5.60;1.00;;;;;;4995266;28;20520;-81
2023/01/31 08:07:06;;;;;;;17.47;6.07;;;5.70;1.00;;;;;;4996465;28;20521;-81
2023/01/31 08:09:33;;;;;;;22.30;7.10;;;5.70;1.00;;;;;;4995698;28;20463;-82
2023/01/31 08:12:00;;;;;;;13.27;5.90;;;5.80;1.00;;;;;;4997103;28;20452;-82
2023/01/31 08:14:27;;;;;;;25.70;7.87;;;5.80;1.00;;;;;;4996955;28;20993;-81
2023/01/31 08:16:54;;;;;;;17.30;6.03;;;5.80;1.00;;;;;;4995800;28;20489;-81
2023/01/31 08:19:21;;;;;;;17.80;5.50;;;5.90;1.00;;;;;;4996333;28;20549;-81
2023/01/31 08:21:49;;;;;;;26.07;7.00;;;5.80;1.00;;;;;;4995673;28;20462;-81
2023/01/31 08:24:16;;;;;;;21.20;4.80;;;5.80;1.00;;;;;;4995904;28;20457;-79
2023/01/31 08:26:43;;;;;;;17.63;5.33;;;5.80;1.00;;;;;;4996399;28;20455;-82
2023/01/31 08:29:10;;;;;;;14.43;5.17;;;5.90;1.00;;;;;;4996234;28;20449;-81
2023/01/31 08:31:37;;;;;;;11.87;5.53;;;5.90;1.00;;;;;;4996124;28;20456;-81
2023/01/31 08:34:04;;;;;;;16.80;6.00;;;5.90;1.00;;;;;;4996442;28;20475;-82
2023/01/31 08:36:32;;;;;;;21.97;6.30;;;5.80;1.00;;;;;;4996487;28;20507;-81
2023/01/31 08:39:00;;;;;;;17.27;5.63;;;5.80;1.00;;;;;;4997548;28;20557;-82
2023/01/31 08:41:28;;;;;;;12.53;5.60;;;5.70;1.00;;;;;;4996716;28;20522;-82
2023/01/31 08:43:56;;;;;;;18.30;6.60;;;5.60;27.00;;;;;;4996751;28;20452;-82
2023/01/31 08:46:24;;;;;;;14.83;5.57;;;5.50;75.90;;;;;;4997103;28;20497;-82
2023/01/31 08:48:51;;;;;;;19.77;7.10;;;5.50;94.40;;;;;;4997091;28;20984;-81
2023/01/31 08:51:18;;;;;;;14.53;6.00;;;5.40;99.90;;;;;;4996674;28;20457;-81
2023/01/31 08:53:45;;;;;;;12.67;4.57;;;5.30;99.90;;;;;;4996764;28;20460;-81
2023/01/31 08:56:13;;;;;;;16.93;4.90;;;5.20;99.90;;;;;;4997508;28;20490;-81
2023/01/31 08:58:42;;;;;;;19.77;6.00;;;5.20;99.90;;;;;;4997635;28;20461;-81
2023/01/31 09:01:11;;;;;;;12.13;5.97;;;5.20;99.90;;;;;;4996264;28;20446;-80
2023/01/31 09:03:38;;;;;;;19.20;6.50;;;5.20;99.90;;;;;;4996212;28;20463;-80
2023/01/31 09:06:07;;;;;;;15.87;6.40;;;5.20;99.90;;;;;;4996036;28;20561;-81
2023/01/31 09:08:34;;;;;;;13.47;5.23;;;5.20;99.90;;;;;;4996910;28;20461;-81
2023/01/31 09:11:02;;;;;;;18.37;5.93;;;5.20;99.90;;;;;;4996633;28;20557;-80
2023/01/31 09:13:31;;;;;;;12.30;4.50;;;5.20;99.90;;;;;;4996413;28;20548;-81
2023/01/31 09:15:59;;;;;;;16.23;5.13;;;5.20;99.90;;;;;;4996621;28;20574;-80
2023/01/31 09:18:26;;;;;;;9.73;4.57;;;5.20;99.90;;;;;;4999117;28;20917;-80
2023/01/31 09:20:53;;;;;;;14.50;5.83;;;5.10;99.90;;;;;;4998823;28;20550;-79
2023/01/31 09:23:20;;;;;;;14.57;5.20;;;5.20;99.90;;;;;;4998938;28;20457;-82
2023/01/31 09:25:53;;;;;;;14.43;4.80;;;5.30;99.90;;;;;;4999270;28;20484;-81
2023/01/31 09:28:20;;;;;;;16.60;5.60;;;5.40;99.90;;;;;;5000116;28;20873;-82
2023/01/31 09:30:48;;;;;;;15.70;6.40;;;5.40;99.90;;;;;;4999273;28;20519;-81
2023/01/31 09:33:15;;;;;;;10.43;4.40;;;5.30;99.90;;;;;;4999523;28;20457;-81
2023/01/31 09:35:42;;;;;;;8.57;4.10;;;5.40;99.90;;;;;;5000010;28;20475;-81
2023/01/31 09:38:09;;;;;;;18.63;6.40;;;5.40;99.90;;;;;;4999349;28;20452;-81
2023/01/31 09:40:39;;;;;;;16.10;5.60;;;5.40;99.90;;;;;;5000196;28;20537;-81
2023/01/31 09:43:11;;;;;;;13.00;5.03;;;5.40;99.90;;;;;;5000598;28;20435;-81
2023/01/31 09:45:42;;;;;;;18.60;5.83;;;5.50;99.90;;;;;;5001309;28;20559;-80
2023/01/31 09:48:18;;;;;;;15.37;5.40;;;5.50;99.90;;;;;;5000836;28;20482;-81
2023/01/31 09:50:49;;;;;;;17.60;4.27;;;5.50;99.90;;;;;;5001342;28;20463;-81
2023/01/31 09:53:20;;;;;;;9.77;3.60;;;5.60;99.90;;;;;;5001362;28;20577;-82
2023/01/31 09:55:55;;;;;;;15.70;4.10;;;5.50;99.90;;;;;;5001067;28;20479;-81
2023/01/31 09:58:29;;;;;;;13.27;3.70;;;5.60;99.90;;;;;;5000855;28;20832;-82
2023/01/31 10:01:06;;;;;;;7.23;4.10;;;5.60;99.90;;;;;;5000456;28;20460;-81
2023/01/31 10:03:47;;;;;;;15.33;4.10;;;5.70;99.90;;;;;;4994888;28;20520;-82
2023/01/31 10:06:21;;;;;;;13.17;4.27;;;5.80;99.90;;;;;;5004430;28;20469;-82
2023/01/31 10:08:54;;;;;;;11.10;4.27;;;5.90;99.90;;;;;;4999987;28;20461;-82
2023/01/31 10:11:34;;;;;;;14.77;4.77;;;5.90;99.90;;;;;;4999863;28;20543;-82
2023/01/31 10:14:13;;;;;;;11.23;4.20;;;5.90;99.90;;;;;;4999633;28;20466;-82
2023/01/31 10:16:44;;;;;;;9.67;3.50;;;5.80;99.90;;;;;;4996923;28;20488;-81
2023/01/31 10:19:17;;;;;;;15.27;3.17;;;5.80;99.90;;;;;;4988655;28;20466;-82
2023/01/31 10:21:50;;;;;;;12.90;4.60;;;5.80;99.90;;;;;;4997449;28;20462;-80
2023/01/31 10:24:24;;;;;;;12.27;3.60;;;5.90;99.90;;;;;;4997430;28;20451;-80
2023/01/31 10:26:55;;;;;;;9.20;4.57;;;5.90;99.90;;;;;;5029277;23;21016;-79
2023/01/31 10:29:28;;;;;;;12.50;4.67;;;5.90;99.90;;;;;;5017212;28;20548;-82
2023/01/31 10:32:00;;;;;;;12.93;3.40;;;5.80;99.90;;;;;;5017722;28;21036;-81
2023/01/31 10:34:30;;;;;;;24.13;4.63;;;5.80;99.90;;;;;;5018373;28;20449;-81
2023/01/31 10:37:01;;;;;;;13.40;4.70;;;5.80;99.90;;;;;;5000412;28;20491;-81
2023/01/31 10:39:32;;;;;;;14.77;4.00;;;5.90;99.90;;;;;;4997276;28;20471;-80
2023/01/31 10:42:10;;;;;;;10.53;4.13;;;6.10;99.90;;;;;;4997542;28;20456;-80
2023/01/31 10:44:44;;;;;;;13.90;5.27;;;6.00;99.90;;;;;;4997967;28;20533;-82
2023/01/31 10:47:13;;;;;;;14.37;4.93;;;6.00;99.90;;;;;;4998021;28;20475;-79
2023/01/31 10:49:45;;;;;;;16.07;4.37;;;6.00;99.90;;;;;;4998085;28;20520;-79
2023/01/31 10:52:27;;;;;;;13.10;3.83;;;6.00;99.90;;;;;;4996765;28;20459;-81
2023/01/31 10:55:04;;;;;;;8.40;4.73;;;5.90;99.90;;;;;;4998484;28;20860;-81
2023/01/31 10:57:32;;;;;;;9.00;3.93;;;6.00;99.90;;;;;;4997881;28;20481;-80
2023/01/31 10:59:59;;;;;;;8.80;4.63;;;6.00;99.90;;;;;;4997259;28;20547;-79
2023/01/31 11:02:27;;;;;;;14.23;5.20;;;6.00;99.90;;;;;;4997438;28;20467;-81
2023/01/31 11:04:58;;;;;;;10.43;4.63;;;6.00;99.90;;;;;;4997796;28;20475;-80
2023/01/31 11:07:28;;;;;;;9.70;4.67;;;5.90;99.90;;;;;;4998216;28;20983;-79
2023/01/31 11:09:57;;;;;;;9.53;4.53;;;5.80;99.90;;;;;;4997374;28;20456;-81
2023/01/31 11:12:42;;;;;;;14.37;3.83;;;5.80;99.90;;;;;;4998025;28;20498;-79
2023/01/31 11:15:16;;;;;;;10.23;4.10;;;5.80;99.90;;;;;;4997793;28;20484;-82
2023/01/31 11:17:45;;;;;;;15.83;5.40;;;5.90;99.90;;;;;;4998153;28;20477;-82
2023/01/31 11:20:24;;;;;;;16.27;5.00;;;6.10;99.90;;;;;;4998375;28;20556;-83
2023/01/31 11:22:52;;;;;;;16.67;4.83;;;6.10;99.90;;;;;;4998425;28;20467;-81
2023/01/31 11:25:21;;;;;;;12.87;5.00;;;6.10;99.90;;;;;;4998463;28;20508;-82
2023/01/31 11:27:49;;;;;;;10.13;3.97;;;6.20;99.90;;;;;;4998241;28;20821;-80
2023/01/31 11:30:22;;;;;;;14.17;5.00;;;6.30;99.90;;;;;;4998761;28;20942;-82
2023/01/31 11:32:49;;;;;;;20.07;5.60;;;6.40;99.90;;;;;;4998647;28;20455;-82
2023/01/31 11:35:26;;;;;;;15.00;4.20;;;6.40;99.90;;;;;;5000654;28;20470;-81
2023/01/31 11:37:55;;;;;;;14.60;4.20;;;6.40;99.90;;;;;;5012916;28;20492;-80
2023/01/31 11:40:28;;;;;;;12.07;4.40;;;6.40;99.90;;;;;;5012483;28;20513;-81
2023/01/31 11:42:56;;;;;;;12.30;4.77;;;6.40;99.90;;;;;;5012307;28;20469;-81
2023/01/31 11:45:26;;;;;;;10.00;4.87;;;6.50;99.90;;;;;;5012367;28;20466;-82
2023/01/31 11:47:55;;;;;;;11.43;4.90;;;6.60;99.90;;;;;;5010711;28;20449;-80
2023/01/31 11:50:26;;;;;;;9.60;4.20;;;6.60;99.90;;;;;;4997300;28;20527;-80
2023/01/31 11:52:58;;;;;;;16.90;4.70;;;6.60;99.90;;;;;;4997437;28;20447;-81
2023/01/31 11:55:26;;;;;;;11.50;4.70;;;6.60;99.90;;;;;;5016539;28;20555;-80
2023/01/31 11:57:57;;;;;;;9.00;4.60;;;6.70;99.90;;;;;;5014983;28;20549;-80
2023/01/31 12:00:26;;;;;;;12.00;5.17;;;6.80;99.90;;;;;;5016307;28;20468;-83
2023/01/31 12:03:00;;;;;;;13.33;5.67;;;6.90;99.90;;;;;;5017797;28;20465;-78
2023/01/31 12:05:36;;;;;;;16.63;6.13;;;6.90;99.90;;;;;;5010779;28;20975;-81
2023/01/31 12:08:04;;;;;;;14.00;5.60;;;6.80;99.90;;;;;;4998533;28;20442;-81
2023/01/31 12:10:35;;;;;;;14.87;6.63;;;6.80;99.90;;;;;;4997284;28;20458;-80
2023/01/31 12:13:11;;;;;;;10.20;5.60;;;6.90;93.40;;;;;;4997932;28;20468;-82
2023/01/31 12:15:48;;;;;;;15.40;5.73;;;6.90;99.90;;;;;;4997433;28;20516;-82
2023/01/31 12:18:24;;;;;;;12.33;5.53;;;6.90;97.50;;;;;;4997684;28;20913;-82
2023/01/31 12:21:01;;;;;;;12.77;6.03;;;6.90;99.90;;;;;;4996769;28;20499;-82
2023/01/31 12:23:35;;;;;;;15.87;6.50;;;6.80;99.90;;;;;;4998199;28;20496;-80
2023/01/31 12:26:10;;;;;;;19.20;5.50;;;6.80;99.90;;;;;;4997680;28;20555;-80
2023/01/31 12:28:50;;;;;;;12.73;6.87;;;6.90;99.90;;;;;;4996941;28;20464;-82
2023/01/31 12:31:46;;;;;;;12.30;5.60;;;6.80;99.90;;;;;;4997392;28;20458;-80
2023/01/31 12:34:27;;;;;;;13.67;8.73;;;6.90;99.90;;;;;;4997585;28;20445;-80
2023/01/31 12:37:18;;;;;;;14.53;6.07;;;6.80;99.90;;;;;;5001269;28;20481;-82
2023/01/31 12:40:13;;;;;;;14.47;6.43;;;6.90;99.90;;;;;;4999094;28;20453;-81
2023/01/31 12:42:53;;;;;;;13.83;7.00;;;6.90;99.90;;;;;;4997279;28;20531;-79
2023/01/31 12:45:36;;;;;;;14.77;7.63;;;6.80;99.90;;;;;;4996566;28;20471;-78
2023/01/31 12:48:26;;;;;;;12.80;7.30;;;6.90;99.90;;;;;;4998355;28;20513;-81
2023/01/31 12:51:00;;;;;;;15.87;8.37;;;6.90;99.90;;;;;;5000340;28;20444;-80
2023/01/31 12:53:43;;;;;;;14.73;8.00;;;6.90;99.90;;;;;;5002632;28;20458;-80
2023/01/31 12:56:31;;;;;;;12.27;8.70;;;6.90;99.90;;;;;;5003082;28;20457;-79
2023/01/31 12:59:05;;;;;;;13.63;7.73;;;6.90;99.90;;;;;;4999816;28;20938;-80
2023/01/31 13:01:37;;;;;;;14.73;8.83;;;7.00;99.90;;;;;;5003417;28;20521;-81
2023/01/31 13:04:26;;;;;;;15.20;8.90;;;7.00;99.90;;;;;;5002806;28;20866;-80
2023/01/31 13:06:57;;;;;;;19.90;8.50;;;7.00;99.90;;;;;;5001416;28;20488;-80
2023/01/31 13:09:29;;;;;;;20.90;9.83;;;7.00;99.90;;;;;;5001627;28;20525;-81